createdAt,value
2019-03-23T00:01:03.202Z,99.90
2019-03-23T00:03:35.745Z,99.90
2019-03-23T00:06:09.949Z,99.90
2019-03-23T00:08:43.887Z,99.90
2019-03-23T00:11:16.576Z,99.90
2019-03-23T00:13:49.122Z,99.90
2019-03-23T00:16:21.863Z,99.90
2019-03-23T00:18:55.464Z,99.90
2019-03-23T00:21:28.196Z,99.90
2019-03-23T00:24:01.536Z,99.90
2019-03-23T00:26:35.405Z,99.90
2019-03-23T00:29:08.110Z,99.90
2019-03-23T00:31:40.832Z,99.90
2019-03-23T00:34:13.502Z,99.90
2019-03-23T00:36:46.122Z,99.90
2019-03-23T00:39:21.390Z,99.90
2019-03-23T00:41:53.903Z,99.90
2019-03-23T00:44:43.217Z,99.90
2019-03-23T00:47:15.891Z,99.90
2019-03-23T00:49:48.739Z,99.90
2019-03-23T00:52:30.691Z,99.90
2019-03-23T00:55:03.305Z,99.90
2019-03-23T00:57:35.914Z,99.90
2019-03-23T01:00:09.604Z,99.90
2019-03-23T01:02:42.425Z,99.90
2019-03-23T01:05:15.040Z,99.90
2019-03-23T01:07:47.768Z,99.90
2019-03-23T01:10:27.010Z,99.90
2019-03-23T01:12:59.754Z,99.90
2019-03-23T01:15:42.917Z,99.90
2019-03-23T01:18:15.435Z,99.90
2019-03-23T01:20:49.942Z,99.90
2019-03-23T01:23:22.357Z,99.90
2019-03-23T01:25:58.326Z,99.90
2019-03-23T01:28:30.848Z,99.90
2019-03-23T01:31:06.539Z,99.90
2019-03-23T01:33:39.212Z,99.90
2019-03-23T01:36:21.058Z,99.90
2019-03-23T01:38:53.633Z,99.90
2019-03-23T01:41:33.642Z,99.90
2019-03-23T01:44:06.984Z,99.90
2019-03-23T01:46:42.506Z,99.90
2019-03-23T01:49:15.076Z,99.90
2019-03-23T01:51:47.597Z,99.90
2019-03-23T01:54:20.032Z,99.90
2019-03-23T01:56:52.629Z,99.90
2019-03-23T01:59:25.272Z,99.90
2019-03-23T02:01:57.838Z,99.90
2019-03-23T02:04:30.467Z,99.90
2019-03-23T02:07:13.172Z,99.90
2019-03-23T02:09:37.433Z,99.90
2019-03-23T02:12:10.157Z,99.90
2019-03-23T02:14:42.569Z,99.90
2019-03-23T02:17:15.099Z,99.90
2019-03-23T02:19:47.695Z,99.90
2019-03-23T02:22:20.348Z,99.90
2019-03-23T02:24:53.031Z,99.90
2019-03-23T02:27:25.647Z,99.90
2019-03-23T02:29:58.178Z,99.90
2019-03-23T02:32:30.754Z,99.90
2019-03-23T02:35:03.321Z,99.90
2019-03-23T02:37:35.976Z,99.90
2019-03-23T02:40:09.296Z,99.90
2019-03-23T02:42:41.925Z,99.90
2019-03-23T02:45:14.902Z,99.90
2019-03-23T02:47:47.283Z,99.90
2019-03-23T02:50:19.986Z,99.90
2019-03-23T02:52:55.716Z,99.90
2019-03-23T02:55:28.352Z,99.90
2019-03-23T02:58:04.151Z,99.90
2019-03-23T03:00:36.836Z,99.90
2019-03-23T03:03:09.603Z,99.90
2019-03-23T03:05:42.332Z,99.90
2019-03-23T03:08:23.985Z,99.90
2019-03-23T03:10:56.756Z,99.90
2019-03-23T03:13:36.843Z,99.90
2019-03-23T03:16:09.518Z,99.90
2019-03-23T03:18:42.094Z,99.90
2019-03-23T03:21:14.555Z,99.90
2019-03-23T03:23:56.631Z,99.90
2019-03-23T03:26:29.002Z,99.90
2019-03-23T03:29:01.661Z,99.90
2019-03-23T03:31:34.220Z,99.90
2019-03-23T03:34:10.782Z,99.90
2019-03-23T03:36:43.953Z,99.90
2019-03-23T03:39:34.454Z,99.90
2019-03-23T03:42:07.862Z,99.90
2019-03-23T03:44:40.187Z,99.90
2019-03-23T03:47:12.791Z,99.90
2019-03-23T03:49:45.508Z,99.90
2019-03-23T03:52:17.994Z,99.90
2019-03-23T03:54:53.557Z,99.90
2019-03-23T03:57:25.916Z,99.90
2019-03-23T04:00:07.600Z,99.90
2019-03-23T04:02:40.106Z,99.90
2019-03-23T04:05:15.772Z,99.90
2019-03-23T04:07:48.371Z,99.90
2019-03-23T04:10:30.606Z,99.90
2019-03-23T04:13:03.047Z,99.90
2019-03-23T04:15:35.931Z,99.90
2019-03-23T04:18:08.232Z,99.90
2019-03-23T04:20:46.254Z,99.90
2019-03-23T04:23:18.941Z,99.90
2019-03-23T04:25:55.551Z,99.90
2019-03-23T04:28:29.075Z,99.90
2019-03-23T04:31:05.747Z,99.90
2019-03-23T04:33:38.310Z,99.90
2019-03-23T04:36:14.747Z,99.90
2019-03-23T04:38:47.283Z,99.90
2019-03-23T04:41:27.527Z,99.90
2019-03-23T04:44:00.052Z,99.90
2019-03-23T04:46:41.345Z,99.90
2019-03-23T04:49:13.868Z,99.90
2019-03-23T04:51:46.373Z,99.90
2019-03-23T04:54:18.899Z,99.90
2019-03-23T04:56:57.540Z,99.90
2019-03-23T04:59:30.187Z,99.90
2019-03-23T05:02:15.040Z,99.90
2019-03-23T05:04:47.507Z,99.90
2019-03-23T05:07:20.372Z,99.90
2019-03-23T05:09:52.972Z,99.90
2019-03-23T05:12:28.980Z,99.90
2019-03-23T05:15:01.504Z,99.90
2019-03-23T05:17:34.191Z,99.90
2019-03-23T05:20:07.452Z,99.90
2019-03-23T05:22:40.050Z,99.90
2019-03-23T05:25:24.948Z,99.90
2019-03-23T05:27:57.764Z,99.90
2019-03-23T05:30:30.323Z,99.90
2019-03-23T05:33:03.008Z,99.90
2019-03-23T05:35:36.641Z,99.90
2019-03-23T05:38:09.018Z,99.90
2019-03-23T05:40:41.504Z,99.90
2019-03-23T05:43:13.893Z,99.90
2019-03-23T05:45:46.378Z,99.90
2019-03-23T05:48:18.829Z,99.90
2019-03-23T05:50:51.470Z,99.90
2019-03-23T05:53:24.060Z,99.90
2019-03-23T05:55:56.567Z,99.90
2019-03-23T05:58:29.105Z,99.90
2019-03-23T06:01:01.785Z,99.90
2019-03-23T06:03:34.227Z,99.90
2019-03-23T06:06:06.959Z,99.90
2019-03-23T06:08:39.503Z,99.90
2019-03-23T06:11:11.929Z,99.90
2019-03-23T06:13:44.474Z,99.90
2019-03-23T06:16:17.918Z,99.90
2019-03-23T06:18:50.625Z,99.90
2019-03-23T06:21:23.238Z,99.90
2019-03-23T06:23:55.773Z,99.90
2019-03-23T06:26:28.448Z,99.90
2019-03-23T06:29:01.029Z,99.90
2019-03-23T06:31:33.595Z,99.90
2019-03-23T06:34:06.062Z,99.90
2019-03-23T06:36:39.115Z,99.90
2019-03-23T06:39:11.640Z,99.90
2019-03-23T06:41:44.139Z,99.90
2019-03-23T06:44:18.390Z,99.90
2019-03-23T06:46:51.107Z,99.90
2019-03-23T06:49:23.701Z,99.90
2019-03-23T06:51:56.229Z,99.90
2019-03-23T06:54:28.930Z,99.90
2019-03-23T06:57:01.479Z,99.90
2019-03-23T06:59:34.240Z,99.90
2019-03-23T07:02:06.678Z,99.90
2019-03-23T07:04:39.207Z,99.90
2019-03-23T07:07:11.655Z,99.90
2019-03-23T07:09:47.273Z,99.90
2019-03-23T07:12:19.885Z,99.90
2019-03-23T07:14:56.601Z,99.90
2019-03-23T07:17:30.116Z,99.90
2019-03-23T07:20:08.355Z,99.90
2019-03-23T07:22:41.404Z,99.90
2019-03-23T07:25:22.973Z,99.90
2019-03-23T07:27:55.824Z,99.90
2019-03-23T07:30:31.296Z,99.90
2019-03-23T07:33:03.861Z,99.90
2019-03-23T07:35:37.845Z,99.90
2019-03-23T07:38:10.929Z,99.90
2019-03-23T07:40:52.530Z,99.90
2019-03-23T07:43:25.245Z,99.30
2019-03-23T07:46:02.964Z,98.70
2019-03-23T07:48:35.803Z,97.80
2019-03-23T07:51:14.464Z,97.80
2019-03-23T07:53:47.044Z,96.40
2019-03-23T07:56:19.717Z,95.60
2019-03-23T07:58:52.959Z,94.30
2019-03-23T08:01:28.618Z,93.40
2019-03-23T08:04:01.680Z,91.70
2019-03-23T08:06:44.079Z,89.40
2019-03-23T08:09:20.670Z,86.60
2019-03-23T08:11:52.856Z,84.50
2019-03-23T08:14:25.779Z,81.90
2019-03-23T08:17:04.497Z,81.40
2019-03-23T08:19:38.394Z,80.90
2019-03-23T08:22:11.285Z,78.30
2019-03-23T08:24:43.850Z,77.50
2019-03-23T08:27:19.813Z,74.00
2019-03-23T08:29:52.293Z,69.90
2019-03-23T08:32:31.808Z,67.30
2019-03-23T08:35:05.414Z,63.60
2019-03-23T08:37:41.481Z,62.60
2019-03-23T08:40:14.364Z,58.50
2019-03-23T08:42:56.665Z,56.00
2019-03-23T08:45:30.003Z,55.60
2019-03-23T08:48:06.089Z,55.90
2019-03-23T08:50:40.398Z,52.90
2019-03-23T08:53:20.579Z,51.80
2019-03-23T08:55:53.438Z,52.60
2019-03-23T08:58:32.233Z,52.30
2019-03-23T09:01:05.353Z,51.00
2019-03-23T09:03:40.788Z,51.50
2019-03-23T09:06:13.362Z,51.50
2019-03-23T09:08:46.086Z,50.60
2019-03-23T09:11:20.615Z,50.30
2019-03-23T09:13:54.068Z,49.30
2019-03-23T09:16:26.674Z,49.00
2019-03-23T09:18:59.293Z,48.20
2019-03-23T09:21:31.703Z,47.80
2019-03-23T09:24:04.310Z,46.10
2019-03-23T09:26:36.948Z,45.90
2019-03-23T09:29:21.382Z,45.00
2019-03-23T09:31:53.866Z,44.50
2019-03-23T09:34:26.581Z,45.30
2019-03-23T09:37:00.690Z,44.70
2019-03-23T09:39:40.026Z,44.30
2019-03-23T09:42:12.633Z,44.80
2019-03-23T09:44:45.245Z,42.60
2019-03-23T09:47:17.938Z,42.40
2019-03-23T09:49:53.822Z,42.30
2019-03-23T09:52:27.057Z,42.40
2019-03-23T09:55:13.248Z,41.10
2019-03-23T09:57:46.188Z,40.50
2019-03-23T10:00:19.553Z,41.90
2019-03-23T10:02:52.247Z,41.90
2019-03-23T10:05:24.864Z,42.60
2019-03-23T10:07:57.418Z,41.40
2019-03-23T10:10:34.213Z,40.60
2019-03-23T10:13:06.700Z,40.90
2019-03-23T10:15:51.838Z,40.30
2019-03-23T10:18:24.468Z,38.90
2019-03-23T10:21:00.022Z,38.40
2019-03-23T10:23:33.042Z,37.20
2019-03-23T10:26:11.678Z,37.10
2019-03-23T10:28:44.754Z,37.70
2019-03-23T10:31:20.779Z,37.80
2019-03-23T10:33:53.754Z,38.00
2019-03-23T10:36:26.996Z,38.20
2019-03-23T10:38:59.703Z,37.50
2019-03-23T10:41:41.059Z,37.10
2019-03-23T10:44:13.708Z,37.30
2019-03-23T10:46:54.634Z,36.80
2019-03-23T10:49:27.365Z,37.00
2019-03-23T10:51:59.892Z,38.00
2019-03-23T10:54:32.546Z,37.10
2019-03-23T10:57:11.419Z,37.60
2019-03-23T10:59:44.079Z,36.80
2019-03-23T11:02:19.766Z,34.40
2019-03-23T11:04:52.715Z,34.00
2019-03-23T11:07:35.137Z,33.60
2019-03-23T11:10:08.280Z,33.40
2019-03-23T11:12:41.285Z,33.90
2019-03-23T11:15:14.278Z,32.80
2019-03-23T11:17:50.793Z,32.20
2019-03-23T11:20:24.673Z,31.30
2019-03-23T11:23:05.000Z,31.50
2019-03-23T11:25:39.084Z,30.90
2019-03-23T11:28:15.201Z,30.60
2019-03-23T11:30:48.435Z,31.90
2019-03-23T11:33:28.119Z,31.60
2019-03-23T11:36:00.911Z,31.90
2019-03-23T11:38:37.967Z,33.20
2019-03-23T11:41:17.993Z,33.20
2019-03-23T11:43:50.973Z,33.50
2019-03-23T11:46:23.809Z,33.30
2019-03-23T11:48:57.441Z,34.00
2019-03-23T11:51:30.003Z,33.30
2019-03-23T11:54:02.795Z,33.40
2019-03-23T11:56:35.584Z,33.30
2019-03-23T11:59:08.225Z,33.30
2019-03-23T12:01:51.303Z,33.80
2019-03-23T12:04:16.026Z,33.30
2019-03-23T12:06:48.825Z,33.70
2019-03-23T12:09:24.604Z,33.00
2019-03-23T12:11:57.633Z,33.20
2019-03-23T12:14:31.452Z,32.50
2019-03-23T12:17:04.655Z,33.70
2019-03-23T12:19:37.166Z,33.40
2019-03-23T12:22:10.055Z,32.60
2019-03-23T12:24:42.773Z,33.80
2019-03-23T12:27:15.979Z,35.20
2019-03-23T12:29:48.963Z,34.30
2019-03-23T12:32:21.747Z,34.10
2019-03-23T12:34:54.450Z,33.80
2019-03-23T12:37:27.164Z,33.60
2019-03-23T12:39:59.902Z,33.30
2019-03-23T12:42:33.541Z,33.30
2019-03-23T12:45:06.728Z,32.70
2019-03-23T12:47:39.440Z,32.90
2019-03-23T12:50:13.166Z,33.30
2019-03-23T12:52:45.870Z,35.00
2019-03-23T12:55:19.255Z,33.90
2019-03-23T12:57:52.009Z,32.50
2019-03-23T13:00:24.998Z,34.80
2019-03-23T13:02:57.464Z,33.50
2019-03-23T13:05:30.095Z,34.20
2019-03-23T13:08:03.097Z,33.60
2019-03-23T13:10:36.332Z,33.10
2019-03-23T13:13:08.934Z,31.50
2019-03-23T13:15:41.638Z,30.40
2019-03-23T13:18:14.602Z,30.00
2019-03-23T13:20:47.219Z,29.50
2019-03-23T13:23:20.461Z,29.30
2019-03-23T13:25:53.436Z,29.60
2019-03-23T13:28:26.485Z,28.80
2019-03-23T13:30:59.244Z,28.70
2019-03-23T13:33:31.626Z,28.20
2019-03-23T13:36:04.545Z,28.20
2019-03-23T13:38:39.880Z,28.40
2019-03-23T13:41:13.447Z,29.00
2019-03-23T13:43:46.123Z,28.20
2019-03-23T13:46:18.683Z,28.90
2019-03-23T13:48:51.088Z,28.90
2019-03-23T13:51:24.639Z,29.00
2019-03-23T13:53:57.299Z,29.90
2019-03-23T13:56:30.184Z,28.80
2019-03-23T13:59:02.777Z,29.70
2019-03-23T14:01:36.655Z,29.80
2019-03-23T14:04:10.169Z,30.30
2019-03-23T14:06:42.889Z,29.90
2019-03-23T14:09:16.204Z,30.90
2019-03-23T14:11:54.951Z,30.40
2019-03-23T14:14:24.044Z,30.30
2019-03-23T14:16:57.758Z,30.80
2019-03-23T14:19:30.926Z,30.40
2019-03-23T14:22:03.528Z,30.40
2019-03-23T14:24:36.082Z,31.20
2019-03-23T14:27:09.186Z,31.20
2019-03-23T14:29:41.823Z,31.70
2019-03-23T14:32:15.097Z,31.30
2019-03-23T14:34:47.670Z,31.20
2019-03-23T14:37:20.365Z,31.30
2019-03-23T14:39:53.100Z,31.50
2019-03-23T14:42:26.459Z,32.00
2019-03-23T14:45:00.038Z,31.90
2019-03-23T14:47:34.401Z,32.50
2019-03-23T14:50:07.892Z,32.60
2019-03-23T14:52:40.700Z,32.40
2019-03-23T14:55:13.274Z,31.90
2019-03-23T14:57:46.703Z,31.90
2019-03-23T15:00:32.087Z,32.50
2019-03-23T15:03:05.539Z,33.30
2019-03-23T15:05:38.868Z,32.20
2019-03-23T15:08:13.659Z,33.20
2019-03-23T15:10:46.541Z,32.40
2019-03-23T15:13:19.252Z,32.50
2019-03-23T15:15:52.280Z,33.00
2019-03-23T15:18:25.238Z,33.60
2019-03-23T15:20:59.003Z,32.90
2019-03-23T15:23:39.284Z,32.80
2019-03-23T15:26:12.130Z,35.00
2019-03-23T15:28:47.600Z,34.80
2019-03-23T15:31:21.326Z,32.40
2019-03-23T15:34:00.107Z,32.60
2019-03-23T15:36:32.874Z,33.00
2019-03-23T15:39:07.472Z,33.60
2019-03-23T15:41:40.735Z,34.10
2019-03-23T15:44:13.844Z,33.70
2019-03-23T15:46:46.656Z,33.80
2019-03-23T15:49:19.718Z,34.50
2019-03-23T15:51:52.324Z,34.10
2019-03-23T15:54:26.010Z,34.90
2019-03-23T15:56:59.693Z,34.20
2019-03-23T15:59:32.615Z,33.40
2019-03-23T16:02:05.402Z,33.70
2019-03-23T16:04:38.012Z,33.80
2019-03-23T16:07:10.789Z,34.00
2019-03-23T16:09:44.419Z,34.00
2019-03-23T16:12:17.143Z,34.10
2019-03-23T16:14:49.808Z,34.40
2019-03-23T16:17:22.386Z,34.60
2019-03-23T16:19:54.899Z,34.90
2019-03-23T16:22:28.000Z,35.10
2019-03-23T16:25:01.289Z,36.20
2019-03-23T16:27:34.317Z,35.70
2019-03-23T16:30:08.847Z,36.40
2019-03-23T16:32:41.463Z,36.30
2019-03-23T16:35:14.529Z,36.60
2019-03-23T16:37:47.698Z,37.00
2019-03-23T16:40:20.411Z,37.60
2019-03-23T16:42:53.069Z,38.20
2019-03-23T16:45:25.553Z,38.30
2019-03-23T16:47:58.218Z,38.90
2019-03-23T16:50:31.433Z,39.40
2019-03-23T16:53:04.755Z,39.90
2019-03-23T16:55:38.606Z,40.50
2019-03-23T16:58:16.060Z,41.00
2019-03-23T17:00:46.215Z,41.80
2019-03-23T17:03:19.216Z,42.00
2019-03-23T17:05:51.937Z,42.70
2019-03-23T17:08:24.715Z,42.70
2019-03-23T17:10:57.388Z,43.10
2019-03-23T17:13:31.168Z,43.30
2019-03-23T17:16:04.570Z,43.50
2019-03-23T17:18:38.208Z,43.90
2019-03-23T17:21:11.006Z,44.10
2019-03-23T17:23:43.916Z,44.50
2019-03-23T17:26:17.453Z,45.10
2019-03-23T17:28:50.770Z,45.10
2019-03-23T17:31:23.961Z,45.00
2019-03-23T17:33:56.742Z,45.10
2019-03-23T17:36:29.516Z,45.40
2019-03-23T17:39:02.227Z,45.50
2019-03-23T17:41:35.583Z,46.00
2019-03-23T17:44:08.788Z,46.50
2019-03-23T17:46:42.207Z,47.30
2019-03-23T17:49:16.208Z,46.90
2019-03-23T17:51:48.930Z,47.40
2019-03-23T17:54:22.054Z,47.90
2019-03-23T17:56:54.935Z,48.00
2019-03-23T17:59:28.740Z,48.20
2019-03-23T18:02:02.147Z,48.50
2019-03-23T18:04:34.711Z,49.10
2019-03-23T18:07:07.466Z,49.40
2019-03-23T18:09:40.387Z,49.90
2019-03-23T18:12:13.597Z,50.60
2019-03-23T18:14:47.472Z,52.70
2019-03-23T18:17:20.292Z,53.40
2019-03-23T18:19:53.347Z,53.30
2019-03-23T18:22:26.665Z,54.00
2019-03-23T18:24:59.467Z,54.50
2019-03-23T18:27:32.630Z,54.90
2019-03-23T18:30:05.985Z,55.30
2019-03-23T18:32:40.573Z,55.60
2019-03-23T18:35:14.537Z,55.90
2019-03-23T18:37:48.962Z,56.40
2019-03-23T18:40:23.482Z,56.80
2019-03-23T18:43:01.914Z,57.10
2019-03-23T18:45:35.764Z,57.30
2019-03-23T18:48:09.612Z,57.80
2019-03-23T18:50:42.993Z,58.50
2019-03-23T18:53:15.907Z,59.10
2019-03-23T18:55:48.658Z,60.20
2019-03-23T18:58:21.575Z,60.90
2019-03-23T19:00:54.531Z,60.70
2019-03-23T19:03:27.682Z,60.70
2019-03-23T19:06:00.718Z,61.30
2019-03-23T19:08:41.045Z,61.70
2019-03-23T19:11:15.005Z,62.20
2019-03-23T19:13:52.358Z,63.00
2019-03-23T19:16:25.131Z,63.00
2019-03-23T19:19:01.764Z,63.90
2019-03-23T19:21:42.912Z,64.40
2019-03-23T19:24:17.586Z,65.00
2019-03-23T19:26:52.411Z,64.90
2019-03-23T19:29:27.776Z,67.60
2019-03-23T19:32:01.950Z,68.40
2019-03-23T19:34:36.094Z,69.10
2019-03-23T19:37:09.342Z,69.20
2019-03-23T19:39:45.638Z,68.90
2019-03-23T19:42:18.506Z,68.90
2019-03-23T19:44:54.829Z,70.10
2019-03-23T19:47:28.162Z,70.40
2019-03-23T19:50:01.210Z,70.50
2019-03-23T19:52:33.859Z,70.80
2019-03-23T19:55:09.945Z,71.80
2019-03-23T19:57:42.861Z,72.60
2019-03-23T20:00:28.621Z,73.40
2019-03-23T20:03:05.103Z,74.40
2019-03-23T20:05:37.750Z,75.10
2019-03-23T20:08:10.723Z,76.80
2019-03-23T20:10:43.737Z,77.50
2019-03-23T20:13:16.743Z,78.80
2019-03-23T20:15:52.342Z,78.80
2019-03-23T20:18:25.174Z,78.80
2019-03-23T20:21:07.864Z,80.50
2019-03-23T20:23:41.165Z,81.00
2019-03-23T20:26:18.715Z,80.50
2019-03-23T20:28:51.626Z,81.20
2019-03-23T20:31:27.663Z,86.40
2019-03-23T20:34:02.599Z,85.90
2019-03-23T20:36:39.001Z,87.60
2019-03-23T20:39:12.055Z,90.20
2019-03-23T20:41:47.643Z,89.10
2019-03-23T20:44:20.519Z,89.10
2019-03-23T20:46:53.967Z,90.10
2019-03-23T20:49:28.782Z,90.40
2019-03-23T20:52:02.155Z,90.40
2019-03-23T20:54:37.800Z,90.80
2019-03-23T20:57:11.224Z,91.10
2019-03-23T20:59:46.408Z,90.90
2019-03-23T21:02:19.719Z,91.00
2019-03-23T21:04:53.246Z,90.80
2019-03-23T21:07:27.067Z,91.10
2019-03-23T21:10:00.455Z,91.80
2019-03-23T21:12:34.477Z,93.10
2019-03-23T21:15:08.759Z,93.10
2019-03-23T21:17:51.106Z,92.80
2019-03-23T21:20:19.881Z,95.70
2019-03-23T21:22:53.295Z,96.80
2019-03-23T21:25:29.943Z,97.40
2019-03-23T21:28:04.771Z,98.30
2019-03-23T21:30:39.080Z,99.30
2019-03-23T21:33:12.739Z,98.90
2019-03-23T21:35:45.642Z,98.00
2019-03-23T21:38:19.718Z,97.10
2019-03-23T21:40:53.610Z,96.50
2019-03-23T21:43:27.360Z,96.60
2019-03-23T21:46:00.122Z,97.00
2019-03-23T21:48:33.261Z,96.80
2019-03-23T21:51:06.484Z,97.00
2019-03-23T21:53:39.624Z,96.90
2019-03-23T21:56:12.610Z,95.90
2019-03-23T21:58:45.465Z,96.40
2019-03-23T22:01:18.517Z,97.60
2019-03-23T22:03:52.869Z,98.50
2019-03-23T22:06:28.439Z,98.20
2019-03-23T22:09:01.344Z,99.30
2019-03-23T22:11:34.731Z,99.50
2019-03-23T22:14:07.876Z,99.30
2019-03-23T22:16:40.673Z,99.40
2019-03-23T22:19:13.647Z,99.80
2019-03-23T22:21:47.085Z,99.70
2019-03-23T22:24:19.781Z,99.90
2019-03-23T22:26:52.742Z,99.90
2019-03-23T22:29:25.671Z,99.90
2019-03-23T22:32:01.965Z,99.90
2019-03-23T22:34:36.042Z,99.90
2019-03-23T22:37:09.020Z,99.90
2019-03-23T22:39:41.838Z,99.90
2019-03-23T22:42:14.522Z,99.90
2019-03-23T22:44:54.446Z,99.90
2019-03-23T22:47:27.221Z,99.90
2019-03-23T22:49:59.911Z,99.90
2019-03-23T22:52:32.600Z,99.90
2019-03-23T22:55:06.894Z,99.90
2019-03-23T22:57:40.060Z,99.90
2019-03-23T23:00:17.017Z,99.90
2019-03-23T23:02:50.193Z,99.90
2019-03-23T23:05:23.151Z,99.90
2019-03-23T23:07:56.232Z,99.90
2019-03-23T23:10:29.116Z,99.90
2019-03-23T23:13:02.860Z,99.90
2019-03-23T23:15:35.445Z,99.90
2019-03-23T23:18:08.517Z,99.90
2019-03-23T23:20:40.978Z,99.90
2019-03-23T23:23:13.937Z,99.90
2019-03-23T23:25:46.487Z,99.90
2019-03-23T23:28:26.340Z,99.90
2019-03-23T23:30:58.915Z,99.90
2019-03-23T23:33:31.505Z,99.90
2019-03-23T23:36:04.113Z,99.90
2019-03-23T23:38:36.947Z,99.90
2019-03-23T23:41:09.826Z,99.90
2019-03-23T23:43:42.792Z,99.90
2019-03-23T23:46:15.668Z,99.90
2019-03-23T23:48:51.700Z,99.90
2019-03-23T23:51:24.333Z,99.90
2019-03-23T23:54:00.027Z,99.90
2019-03-23T23:56:32.771Z,99.90
2019-03-23T23:59:12.629Z,99.90
